createdAt,value
2022-11-14T00:04:08.667Z,101716.00
2022-11-14T00:10:29.240Z,101703.00
2022-11-14T00:16:50.093Z,101711.00
2022-11-14T00:23:11.093Z,101710.00
2022-11-14T00:29:31.946Z,101709.00
2022-11-14T00:35:57.042Z,101709.00
2022-11-14T00:42:18.191Z,101697.00
2022-11-14T00:48:38.811Z,101711.00
2022-11-14T00:54:59.834Z,101714.00
2022-11-14T01:01:20.812Z,101696.00
2022-11-14T01:07:41.675Z,101691.00
2022-11-14T01:14:02.391Z,101686.00
2022-11-14T01:20:23.203Z,101688.00
2022-11-14T01:26:43.925Z,101679.00
2022-11-14T01:33:05.349Z,101671.00
2022-11-14T01:39:29.492Z,101670.00
2022-11-14T01:45:58.230Z,101672.00
2022-11-14T01:52:26.795Z,101675.00
2022-11-14T01:58:53.439Z,101675.00
2022-11-14T02:05:16.878Z,101658.00
2022-11-14T02:11:43.629Z,101654.00
2022-11-14T02:18:05.874Z,101655.00
2022-11-14T02:24:26.363Z,101664.00
2022-11-14T02:30:47.181Z,101665.00
2022-11-14T02:37:08.171Z,101675.00
2022-11-14T02:43:28.965Z,101676.00
2022-11-14T02:49:49.956Z,101666.00
2022-11-14T02:56:10.939Z,101678.00
2022-11-14T03:02:31.938Z,101678.00
2022-11-14T03:08:52.824Z,101682.00
2022-11-14T03:15:13.948Z,101690.00
2022-11-14T03:21:34.892Z,101699.00
2022-11-14T03:27:55.638Z,101693.00
2022-11-14T03:34:16.195Z,101703.00
2022-11-14T03:40:40.426Z,101683.00
2022-11-14T03:47:01.376Z,101694.00
2022-11-14T03:53:22.151Z,101690.00
2022-11-14T03:59:42.954Z,101687.00
2022-11-14T04:06:03.901Z,101685.00
2022-11-14T04:12:24.877Z,101693.00
2022-11-14T04:18:45.826Z,101696.00
2022-11-14T04:25:07.905Z,101704.00
2022-11-14T04:31:28.611Z,101695.00
2022-11-14T04:37:49.609Z,101699.00
2022-11-14T04:44:10.397Z,101700.00
2022-11-14T04:50:31.118Z,101714.00
2022-11-14T04:56:51.762Z,101718.00
2022-11-14T05:03:12.379Z,101726.00
2022-11-14T05:09:33.312Z,101724.00
2022-11-14T05:15:54.188Z,101723.00
2022-11-14T05:22:15.060Z,101732.00
2022-11-14T05:28:36.015Z,101726.00
2022-11-14T05:34:56.665Z,101743.00
2022-11-14T05:41:20.478Z,101738.00
2022-11-14T05:47:41.025Z,101744.00
2022-11-14T05:54:01.688Z,101746.00
2022-11-14T06:00:22.670Z,101757.00
2022-11-14T06:06:43.470Z,101750.00
2022-11-14T06:13:04.382Z,101753.00
2022-11-14T06:19:25.087Z,101759.00
2022-11-14T06:25:45.661Z,101763.00
2022-11-14T06:32:06.993Z,101759.00
2022-11-14T06:38:29.227Z,101760.00
2022-11-14T06:44:50.186Z,101766.00
2022-11-14T06:51:12.603Z,101756.00
2022-11-14T06:57:33.296Z,101763.00
2022-11-14T07:03:54.628Z,101756.00
2022-11-14T07:10:15.175Z,101753.00
2022-11-14T07:16:36.457Z,101750.00
2022-11-14T07:22:57.330Z,101753.00
2022-11-14T07:29:18.388Z,101751.00
2022-11-14T07:35:42.803Z,101749.00
2022-11-14T07:42:03.380Z,101749.00
2022-11-14T07:48:24.320Z,101738.00
2022-11-14T07:54:45.208Z,101737.00
2022-11-14T08:01:07.818Z,101737.00
2022-11-14T08:07:28.818Z,101734.00
2022-11-14T08:13:49.629Z,101738.00
2022-11-14T08:20:10.876Z,101742.00
2022-11-14T08:26:34.210Z,101738.00
2022-11-14T08:32:55.037Z,101733.00
2022-11-14T08:39:16.048Z,101736.00
2022-11-14T08:45:36.693Z,101736.00
2022-11-14T08:51:57.347Z,101736.00
2022-11-14T08:58:18.113Z,101734.00
2022-11-14T09:04:38.844Z,101735.00
2022-11-14T09:11:05.882Z,101725.00
2022-11-14T09:17:26.909Z,101715.00
2022-11-14T09:23:48.546Z,101705.00
2022-11-14T09:30:09.961Z,101712.00
2022-11-14T09:36:30.658Z,101685.00
2022-11-14T09:42:51.292Z,101687.00
2022-11-14T09:49:37.899Z,101683.00
2022-11-14T09:55:59.259Z,101689.00
2022-11-14T10:02:29.550Z,101683.00
2022-11-14T10:09:16.675Z,101670.00
2022-11-14T10:16:01.353Z,101661.00
2022-11-14T10:22:39.693Z,101655.00
2022-11-14T10:29:28.619Z,101652.00
2022-11-14T10:35:57.371Z,101659.00
2022-11-14T10:42:37.277Z,101645.00
2022-11-14T10:49:00.467Z,101642.00
2022-11-14T10:55:37.186Z,101636.00
2022-11-14T11:02:02.533Z,101628.00
2022-11-14T11:08:44.127Z,101625.00
2022-11-14T11:15:14.966Z,101625.00
2022-11-14T11:21:48.855Z,101623.00
2022-11-14T11:28:16.711Z,101618.00
2022-11-14T11:34:37.680Z,101616.00
2022-11-14T11:41:25.832Z,101605.00
2022-11-14T11:48:01.825Z,101597.00
2022-11-14T11:54:29.050Z,101602.00
2022-11-14T12:00:57.189Z,101602.00
2022-11-14T12:07:20.882Z,101592.00
2022-11-14T12:14:00.019Z,101591.00
2022-11-14T12:20:58.277Z,101582.00
2022-11-14T12:27:25.266Z,101580.00
2022-11-14T13:20:49.493Z,101568.00
2022-11-14T13:28:00.230Z,101567.00
2022-11-14T13:34:26.174Z,101564.00
2022-11-14T13:41:28.073Z,101565.00
2022-11-14T13:48:26.915Z,101567.00
2022-11-14T13:54:51.363Z,101551.00
2022-11-14T14:01:29.741Z,101555.00
2022-11-14T14:07:59.365Z,101552.00
2022-11-14T14:14:37.931Z,101547.00
2022-11-14T14:21:03.676Z,101541.00
2022-11-14T14:27:28.729Z,101543.00
2022-11-14T14:33:51.653Z,101540.00
2022-11-14T14:40:23.503Z,101537.00
2022-11-14T14:46:44.660Z,101547.00
2022-11-14T14:53:06.977Z,101539.00
2022-11-14T14:59:30.365Z,101537.00
2022-11-14T15:05:59.267Z,101536.00
2022-11-14T15:12:20.645Z,101532.00
2022-11-14T15:18:41.673Z,101530.00
2022-11-14T15:25:15.021Z,101528.00
2022-11-14T15:31:36.831Z,101528.00
2022-11-14T15:44:54.178Z,101539.00
2022-11-14T15:51:15.391Z,101549.00
2022-11-14T15:57:37.477Z,101546.00
2022-11-14T16:03:59.361Z,101539.00
2022-11-14T16:10:22.703Z,101534.00
2022-11-14T16:16:43.502Z,101532.00
2022-11-14T16:23:05.485Z,101524.00
2022-11-14T16:29:26.249Z,101529.00
2022-11-14T16:35:47.170Z,101528.00
2022-11-14T16:42:10.310Z,101527.00
2022-11-14T16:48:31.188Z,101528.00
2022-11-14T16:54:52.069Z,101529.00
2022-11-14T17:01:21.233Z,101522.00
2022-11-14T17:07:42.416Z,101535.00
2022-11-14T17:14:03.160Z,101527.00
2022-11-14T17:20:25.006Z,101537.00
2022-11-14T17:26:46.030Z,101530.00
2022-11-14T17:33:07.050Z,101534.00
2022-11-14T17:39:28.824Z,101525.00
2022-11-14T17:45:58.834Z,101531.00
2022-11-14T17:52:19.802Z,101522.00
2022-11-14T17:58:40.548Z,101519.00
2022-11-14T18:05:01.261Z,101520.00
2022-11-14T18:11:22.030Z,101518.00
2022-11-14T18:17:42.735Z,101510.00
2022-11-14T18:24:04.475Z,101510.00
2022-11-14T18:30:41.096Z,101509.00
2022-11-14T18:37:02.388Z,101503.00
2022-11-14T18:43:23.648Z,101496.00
2022-11-14T18:49:45.225Z,101502.00
2022-11-14T18:56:08.128Z,101512.00
2022-11-14T19:02:28.881Z,101503.00
2022-11-14T19:08:49.576Z,101504.00
2022-11-14T19:15:11.693Z,101515.00
2022-11-14T19:21:32.939Z,101508.00
2022-11-14T19:27:53.798Z,101508.00
2022-11-14T19:34:15.173Z,101502.00
2022-11-14T19:40:38.082Z,101505.00
2022-11-14T19:46:58.708Z,101495.00
2022-11-14T19:53:20.730Z,101498.00
2022-11-14T19:59:41.677Z,101504.00
2022-11-14T20:06:04.066Z,101503.00
2022-11-14T20:12:25.161Z,101499.00
2022-11-14T20:18:57.451Z,101491.00
2022-11-14T20:25:20.077Z,101497.00
2022-11-14T20:31:41.088Z,101490.00
2022-11-14T20:38:04.553Z,101490.00
2022-11-14T20:44:25.897Z,101485.00
2022-11-14T20:50:47.239Z,101474.00
2022-11-14T20:57:08.233Z,101469.00
2022-11-14T21:03:29.186Z,101459.00
2022-11-14T21:10:10.323Z,101467.00
2022-11-14T21:16:40.584Z,101469.00
2022-11-14T21:23:01.509Z,101479.00
2022-11-14T21:29:22.446Z,101463.00
2022-11-14T21:35:43.295Z,101463.00
2022-11-14T21:42:03.826Z,101467.00
2022-11-14T21:48:24.320Z,101455.00
2022-11-14T21:54:45.191Z,101453.00
2022-11-14T22:01:36.775Z,101448.00
2022-11-14T22:07:57.465Z,101445.00
2022-11-14T22:14:18.328Z,101429.00
2022-11-14T22:20:39.320Z,101428.00
2022-11-14T22:27:00.443Z,101418.00
2022-11-14T22:33:21.602Z,101413.00
2022-11-14T22:39:42.193Z,101406.00
2022-11-14T22:46:03.512Z,101396.00
2022-11-14T22:52:24.303Z,101383.00
2022-11-14T22:58:46.088Z,101381.00
2022-11-14T23:05:07.330Z,101378.00
2022-11-14T23:11:30.128Z,101372.00
2022-11-14T23:17:51.498Z,101376.00
2022-11-14T23:24:14.390Z,101362.00
2022-11-14T23:30:36.246Z,101366.00
2022-11-14T23:36:57.186Z,101358.00
2022-11-14T23:43:17.948Z,101352.00
2022-11-14T23:49:38.675Z,101352.00
2022-11-14T23:56:01.486Z,101346.00
